Time;durP1;ratioP1;P1;durP2;ratioP2;P2;SDS_P1;SDS_P2;PMS_P1;PMS_P2;Temp;Humidity;BMP_temperature;BMP_pressure;BME280_temperature;BME280_humidity;BME280_pressure;Samples;Min_cycle;Max_cycle;Signal;HPM_P1;HPM_P2
2022/12/18 00:01:48;;;;;;;67.10;26.30;;;-2.10;99.90;;;;;;5055062;28;20049;-74
2022/12/18 00:04:21;;;;;;;65.70;24.05;;;-1.70;99.90;;;;;;5054968;28;20041;-74
2022/12/18 00:06:47;;;;;;;57.28;23.70;;;-2.10;99.90;;;;;;5053856;28;20052;-74
2022/12/18 00:09:13;;;;;;;59.00;24.05;;;-1.90;99.90;;;;;;5054573;28;20413;-73
2022/12/18 00:11:39;;;;;;;56.63;22.60;;;-1.20;99.90;;;;;;5054159;28;20452;-73
2022/12/18 00:14:04;;;;;;;59.40;23.25;;;-2.20;99.90;;;;;;5054708;28;20040;-73
2022/12/18 00:16:32;;;;;;;55.10;21.73;;;-1.40;99.90;;;;;;5053531;28;20049;-73
2022/12/18 00:18:59;;;;;;;59.42;23.33;;;-2.30;99.90;;;;;;5054692;28;20045;-73
2022/12/18 00:21:26;;;;;;;59.92;21.00;;;-2.00;99.90;;;;;;5036902;28;20376;-73
2022/12/18 00:23:52;;;;;;;56.70;22.75;;;-2.10;99.90;;;;;;5054693;28;20067;-73
2022/12/18 00:26:32;;;;;;;52.30;19.08;;;-1.90;99.90;;;;;;5037492;28;20053;-73
2022/12/18 00:29:25;;;;;;;55.40;20.15;;;-2.00;99.90;;;;;;5054298;28;20044;-73
2022/12/18 00:31:51;;;;;;;52.38;21.60;;;-2.00;99.90;;;;;;5051260;28;20055;-73
2022/12/18 00:34:16;;;;;;;47.97;19.27;;;-1.30;99.90;;;;;;5054018;28;20533;-73
2022/12/18 00:36:42;;;;;;;49.85;20.05;;;-2.50;99.90;;;;;;5054391;28;20389;-73
2022/12/18 00:39:10;;;;;;;57.83;22.17;;;-2.10;99.90;;;;;;5054358;28;20048;-73
2022/12/18 00:44:20;;;;;;;46.92;18.92;;;-2.40;99.90;;;;;;5054943;28;20127;-72
2022/12/18 00:46:47;;;;;;;55.28;21.25;;;-2.30;99.90;;;;;;5053015;28;20438;-72
2022/12/18 00:49:15;;;;;;;53.13;20.08;;;-2.10;99.90;;;;;;5054816;28;20060;-72
2022/12/18 00:51:41;;;;;;;51.42;20.63;;;-2.40;99.90;;;;;;5054244;28;20408;-72
2022/12/18 00:54:06;;;;;;;52.95;21.63;;;-2.60;99.90;;;;;;5054073;28;20037;-72
2022/12/18 00:56:32;;;;;;;46.53;19.80;;;-2.60;99.90;;;;;;5054320;28;20041;-73
2022/12/18 00:58:58;;;;;;;46.90;19.17;;;-2.30;99.90;;;;;;5053590;28;20051;-72
2022/12/18 01:01:23;;;;;;;49.58;18.92;;;-2.60;99.90;;;;;;5053003;28;20423;-72
2022/12/18 01:03:49;;;;;;;55.70;20.90;;;-2.60;99.90;;;;;;5052637;28;20102;-72
2022/12/18 01:06:18;;;;;;;51.63;21.02;;;-2.20;99.90;;;;;;5053213;28;20384;-72
2022/12/18 01:08:44;;;;;;;53.22;21.17;;;-2.50;99.90;;;;;;5053848;28;20087;-72
2022/12/18 01:11:13;;;;;;;60.67;24.08;;;-2.60;99.90;;;;;;5053314;28;20358;-73
2022/12/18 01:13:40;;;;;;;62.83;21.83;;;-2.60;99.90;;;;;;5052284;28;20056;-72
2022/12/18 01:16:06;;;;;;;59.33;21.95;;;-2.40;99.90;;;;;;5054141;28;20040;-72
2022/12/18 01:18:32;;;;;;;51.17;19.35;;;-2.40;99.90;;;;;;5053470;28;20429;-72
2022/12/18 01:20:57;;;;;;;52.92;20.42;;;-2.30;99.90;;;;;;5052076;28;20116;-72
2022/12/18 01:23:23;;;;;;;52.53;20.15;;;-2.40;99.90;;;;;;5053556;28;20087;-72
2022/12/18 01:25:49;;;;;;;62.50;21.83;;;-2.50;99.90;;;;;;5036780;28;20465;-72
2022/12/18 01:28:15;;;;;;;58.17;22.08;;;-2.50;99.90;;;;;;5052498;28;20412;-72
2022/12/18 01:30:40;;;;;;;52.75;20.42;;;-1.90;99.90;;;;;;5052512;28;20098;-72
2022/12/18 01:33:06;;;;;;;56.85;21.55;;;-2.00;99.90;;;;;;5053236;28;20076;-72
2022/12/18 01:35:32;;;;;;;49.60;20.17;;;-1.80;99.90;;;;;;5053410;28;20389;-72
2022/12/18 01:37:57;;;;;;;51.53;19.88;;;-2.00;99.90;;;;;;5053907;28;20047;-72
2022/12/18 01:40:23;;;;;;;55.08;21.05;;;-1.80;99.90;;;;;;5052340;28;20052;-72
2022/12/18 01:42:53;;;;;;;48.03;19.58;;;-2.50;99.90;;;;;;5052199;28;20084;-72
2022/12/18 01:45:23;;;;;;;51.75;19.83;;;-2.50;99.90;;;;;;5053272;28;20081;-72
2022/12/18 01:47:58;;;;;;;50.17;19.25;;;-2.50;99.90;;;;;;5054109;28;20065;-72
2022/12/18 01:50:37;;;;;;;49.80;20.70;;;-2.00;99.90;;;;;;5053345;28;20061;-72
2022/12/18 01:53:21;;;;;;;49.95;20.60;;;-2.50;99.90;;;;;;5052513;28;20072;-72
2022/12/18 01:56:00;;;;;;;56.08;21.83;;;-0.60;99.90;;;;;;5053685;28;20496;-66
2022/12/18 01:58:36;;;;;;;55.33;21.73;;;-2.70;99.90;;;;;;5053303;28;20138;-65
2022/12/18 02:01:01;;;;;;;52.97;20.23;;;-2.60;99.90;;;;;;5052787;28;20053;-65
2022/12/18 02:03:27;;;;;;;53.45;21.35;;;-2.50;99.90;;;;;;5053017;28;20065;-66
2022/12/18 02:06:01;;;;;;;56.80;22.40;;;-2.60;99.90;;;;;;5053189;28;20052;-65
2022/12/18 02:09:06;;;;;;;59.00;21.52;;;-2.70;99.90;;;;;;5053982;28;20084;-65
2022/12/18 02:11:50;;;;;;;57.67;22.52;;;-2.60;99.90;;;;;;5033103;28;20139;-65
2022/12/18 02:14:32;;;;;;;54.72;20.83;;;-2.60;99.90;;;;;;5057617;28;20045;-65
2022/12/18 02:17:13;;;;;;;56.65;22.80;;;-2.80;99.90;;;;;;5057074;28;20120;-65
2022/12/18 02:19:58;;;;;;;54.33;22.73;;;-2.90;99.90;;;;;;5057846;28;20427;-65
2022/12/18 02:22:36;;;;;;;61.05;23.95;;;-2.70;99.90;;;;;;5056992;28;20049;-66
2022/12/18 02:25:17;;;;;;;53.42;21.33;;;-2.20;99.90;;;;;;5056949;28;20085;-66
2022/12/18 02:27:46;;;;;;;56.95;23.52;;;-2.90;99.90;;;;;;5056858;28;20041;-66
2022/12/18 02:30:13;;;;;;;57.45;22.27;;;-2.90;99.90;;;;;;5056835;28;20452;-66
2022/12/18 02:32:43;;;;;;;55.33;23.75;;;-2.30;99.90;;;;;;5039835;28;20124;-65
2022/12/18 02:35:14;;;;;;;53.42;22.80;;;-3.20;99.90;;;;;;5056727;28;20451;-65
2022/12/18 02:37:43;;;;;;;54.67;23.13;;;-3.00;99.90;;;;;;5039901;28;20049;-66
2022/12/18 02:40:10;;;;;;;58.58;22.33;;;-3.20;99.90;;;;;;5057389;28;20084;-65
2022/12/18 02:42:36;;;;;;;58.00;24.35;;;-2.90;99.90;;;;;;5055903;28;20431;-65
2022/12/18 02:45:02;;;;;;;55.13;21.67;;;-2.90;99.90;;;;;;5055292;28;20045;-65
2022/12/18 02:47:33;;;;;;;58.42;22.02;;;-2.80;99.90;;;;;;5056384;28;20049;-65
2022/12/18 02:50:14;;;;;;;49.30;20.30;;;-3.00;99.90;;;;;;5056494;28;20060;-65
2022/12/18 02:53:17;;;;;;;55.90;22.23;;;-2.90;99.90;;;;;;5056954;28;20045;-65
2022/12/18 02:56:03;;;;;;;51.50;21.25;;;-3.00;99.90;;;;;;5056390;28;20045;-65
2022/12/18 02:58:37;;;;;;;54.08;21.70;;;-3.20;99.90;;;;;;5055097;28;20099;-65
2022/12/18 03:01:18;;;;;;;48.63;21.13;;;-3.00;99.90;;;;;;5056236;28;20076;-65
2022/12/18 03:03:53;;;;;;;47.05;20.40;;;-3.20;99.90;;;;;;5056810;28;20056;-66
2022/12/18 03:06:32;;;;;;;56.10;22.23;;;-3.20;99.90;;;;;;5056156;28;20055;-66
2022/12/18 03:09:22;;;;;;;57.88;21.85;;;-3.10;99.90;;;;;;5056188;28;20056;-65
2022/12/18 03:14:43;;;;;;;50.45;21.75;;;-3.10;99.90;;;;;;5056542;28;20381;-65
2022/12/18 03:17:16;;;;;;;60.30;22.63;;;-3.30;99.90;;;;;;5055801;28;20468;-65
2022/12/18 03:19:43;;;;;;;56.83;22.48;;;-3.10;99.90;;;;;;5054887;28;20048;-65
2022/12/18 03:22:10;;;;;;;54.95;23.90;;;-3.20;99.90;;;;;;5055450;28;20041;-66
2022/12/18 03:24:38;;;;;;;49.08;22.27;;;-3.20;99.90;;;;;;5054803;28;20139;-65
2022/12/18 03:27:09;;;;;;;60.22;24.65;;;-3.40;99.90;;;;;;5055788;28;20449;-65
2022/12/18 03:29:55;;;;;;;61.65;23.65;;;-2.50;99.90;;;;;;5054569;28;20055;-65
2022/12/18 03:32:33;;;;;;;54.22;22.95;;;-3.30;99.90;;;;;;5055056;28;20055;-65
2022/12/18 03:35:04;;;;;;;57.75;23.40;;;-3.40;99.90;;;;;;5055850;28;20128;-65
2022/12/18 03:37:29;;;;;;;53.88;22.00;;;-3.30;99.90;;;;;;5055610;28;20040;-65
2022/12/18 03:39:55;;;;;;;56.13;23.17;;;-3.50;99.90;;;;;;5055764;28;20556;-65
2022/12/18 03:42:43;;;;;;;59.88;23.20;;;-3.60;99.90;;;;;;5055477;28;20431;-65
2022/12/18 03:45:22;;;;;;;47.10;20.50;;;-3.60;99.90;;;;;;5054407;28;20080;-66
2022/12/18 03:47:58;;;;;;;52.15;21.08;;;-3.50;99.90;;;;;;5056060;28;20373;-66
2022/12/18 03:50:35;;;;;;;47.28;19.58;;;-3.60;99.90;;;;;;5055634;28;20136;-66
2022/12/18 03:53:38;;;;;;;41.53;17.27;;;-3.40;99.90;;;;;;5055472;28;20044;-65
2022/12/18 03:56:05;;;;;;;41.80;18.67;;;-3.50;99.90;;;;;;5051320;28;20064;-65
2022/12/18 03:58:34;;;;;;;46.10;18.67;;;-3.50;99.90;;;;;;5054003;28;20056;-66
2022/12/18 04:01:04;;;;;;;41.22;18.02;;;-3.80;99.90;;;;;;5055658;28;20052;-66
2022/12/18 04:03:31;;;;;;;42.80;18.85;;;-2.20;99.90;;;;;;5055011;28;20045;-65
2022/12/18 04:05:59;;;;;;;37.65;17.83;;;-3.70;99.90;;;;;;5055498;28;20051;-66
2022/12/18 04:08:26;;;;;;;40.03;17.50;;;-3.80;99.90;;;;;;5054185;28;20049;-65
2022/12/18 04:10:52;;;;;;;31.13;15.93;;;-3.40;99.90;;;;;;5053704;28;20053;-65
2022/12/18 04:13:27;;;;;;;33.35;16.88;;;-3.20;99.90;;;;;;5053771;28;20064;-66
2022/12/18 04:15:53;;;;;;;35.88;16.02;;;-3.60;99.90;;;;;;5053556;28;20041;-66
2022/12/18 04:18:19;;;;;;;32.80;16.00;;;-3.70;99.90;;;;;;5054741;28;20511;-66
2022/12/18 04:20:45;;;;;;;31.75;15.07;;;-3.60;99.90;;;;;;5036958;28;20045;-65
2022/12/18 04:23:11;;;;;;;36.15;15.90;;;-3.80;99.90;;;;;;5055439;28;20037;-66
2022/12/18 04:25:36;;;;;;;31.85;15.98;;;-3.90;99.90;;;;;;5054662;28;20044;-66
2022/12/18 04:28:02;;;;;;;32.47;15.48;;;-3.90;99.90;;;;;;5054587;28;20044;-66
2022/12/18 04:30:28;;;;;;;30.17;14.95;;;-3.90;99.90;;;;;;5053855;28;20492;-65
2022/12/18 04:32:53;;;;;;;36.42;16.40;;;-4.00;99.90;;;;;;5053897;28;20041;-65
2022/12/18 04:35:19;;;;;;;33.97;14.98;;;-3.90;99.90;;;;;;5053513;28;20093;-66
2022/12/18 04:37:45;;;;;;;34.28;15.95;;;-3.50;99.90;;;;;;5053253;28;20041;-66
2022/12/18 04:40:11;;;;;;;30.60;15.25;;;-3.60;99.90;;;;;;5054321;28;20052;-66
2022/12/18 04:42:38;;;;;;;29.70;14.18;;;-3.70;99.90;;;;;;5053322;28;20049;-66
2022/12/18 04:45:04;;;;;;;36.33;14.88;;;-3.90;99.90;;;;;;5054140;28;20048;-66
2022/12/18 04:47:31;;;;;;;31.67;15.23;;;-4.00;99.90;;;;;;5054324;28;20190;-66
2022/12/18 04:49:56;;;;;;;34.58;14.95;;;-3.80;99.90;;;;;;5054399;28;20396;-66
2022/12/18 04:52:22;;;;;;;33.20;15.38;;;-3.70;99.90;;;;;;5052958;28;20049;-65
2022/12/18 04:54:48;;;;;;;31.60;14.70;;;-4.10;99.90;;;;;;5053976;28;20095;-65
2022/12/18 04:57:14;;;;;;;29.75;14.57;;;-4.00;99.90;;;;;;5052739;28;20041;-65
2022/12/18 04:59:39;;;;;;;31.50;14.73;;;-4.00;99.90;;;;;;5054785;28;20049;-66
2022/12/18 05:02:05;;;;;;;36.30;14.82;;;-4.20;99.90;;;;;;5054727;28;20124;-66
2022/12/18 05:04:31;;;;;;;31.80;15.27;;;-3.40;99.90;;;;;;5053919;28;20064;-66
2022/12/18 05:06:57;;;;;;;34.25;15.45;;;-4.00;99.90;;;;;;5052670;28;20053;-65
2022/12/18 05:09:23;;;;;;;32.15;14.05;;;-4.00;99.90;;;;;;5053862;28;20499;-66
2022/12/18 05:11:49;;;;;;;32.75;14.85;;;-4.10;99.90;;;;;;5054315;28;20048;-66
2022/12/18 05:14:15;;;;;;;36.60;15.80;;;-4.10;99.90;;;;;;5052165;28;20457;-65
2022/12/18 05:16:40;;;;;;;31.75;14.07;;;-3.80;99.90;;;;;;5053543;28;20120;-65
2022/12/18 05:19:06;;;;;;;30.85;14.57;;;-4.00;99.90;;;;;;5054464;28;20041;-66
2022/12/18 05:21:32;;;;;;;34.60;14.95;;;-4.10;99.90;;;;;;5054151;28;20052;-66
2022/12/18 05:23:57;;;;;;;32.70;14.82;;;-4.20;99.90;;;;;;5052448;28;20102;-66
2022/12/18 05:26:23;;;;;;;29.42;14.07;;;-4.00;99.90;;;;;;5053587;28;20504;-65
2022/12/18 05:28:48;;;;;;;32.13;14.30;;;-3.90;99.90;;;;;;5053594;28;20044;-66
2022/12/18 05:31:14;;;;;;;33.05;14.70;;;-4.30;99.90;;;;;;5052502;28;20041;-66
2022/12/18 05:33:40;;;;;;;30.30;14.27;;;-4.10;99.90;;;;;;5052185;28;20048;-66
2022/12/18 05:36:08;;;;;;;27.27;13.23;;;-4.30;99.90;;;;;;5052246;28;20052;-66
2022/12/18 05:38:35;;;;;;;28.40;14.20;;;-3.90;99.90;;;;;;5052428;28;20103;-65
2022/12/18 05:41:02;;;;;;;30.17;12.88;;;-4.40;99.90;;;;;;5053355;28;20041;-66
2022/12/18 05:43:28;;;;;;;31.40;13.63;;;-4.20;99.90;;;;;;5051789;28;20040;-65
2022/12/18 05:45:54;;;;;;;28.40;13.23;;;-4.20;99.90;;;;;;5053533;28;20068;-65
2022/12/18 05:48:21;;;;;;;30.95;13.30;;;-4.40;99.90;;;;;;5053824;28;20065;-65
2022/12/18 05:50:48;;;;;;;26.08;12.48;;;-4.20;99.90;;;;;;5053319;28;20155;-66
2022/12/18 05:53:16;;;;;;;26.02;12.10;;;-4.30;99.90;;;;;;5051991;28;20116;-66
2022/12/18 05:55:42;;;;;;;28.23;12.32;;;-4.30;99.90;;;;;;5052051;28;20102;-66
2022/12/18 05:58:10;;;;;;;32.40;13.93;;;-2.90;99.90;;;;;;5053418;28;20128;-66
2022/12/18 06:00:41;;;;;;;29.92;14.25;;;-4.30;99.90;;;;;;5053424;28;20380;-66
2022/12/18 06:03:08;;;;;;;24.55;12.23;;;-4.10;99.90;;;;;;5054302;28;20415;-66
2022/12/18 06:05:38;;;;;;;26.67;12.02;;;-4.20;99.90;;;;;;5052677;28;20048;-66
2022/12/18 06:08:04;;;;;;;25.90;11.82;;;-4.00;99.90;;;;;;5053096;28;20037;-65
2022/12/18 06:10:30;;;;;;;27.98;12.43;;;-4.10;99.90;;;;;;5051613;28;20052;-66
2022/12/18 06:12:56;;;;;;;30.77;12.68;;;-4.10;99.90;;;;;;5053498;28;20163;-66
2022/12/18 06:15:21;;;;;;;28.80;13.35;;;-4.10;99.90;;;;;;5051778;28;20059;-65
2022/12/18 06:17:47;;;;;;;28.52;13.43;;;-4.20;99.90;;;;;;5051867;28;20040;-66
2022/12/18 06:20:13;;;;;;;24.58;12.88;;;-4.20;99.90;;;;;;5052700;28;20075;-66
2022/12/18 06:22:38;;;;;;;28.77;12.15;;;-4.20;99.90;;;;;;5052565;28;20051;-65
2022/12/18 06:25:05;;;;;;;22.55;11.55;;;-4.10;99.90;;;;;;5051856;28;20472;-65
2022/12/18 06:27:33;;;;;;;25.05;12.15;;;-4.10;99.90;;;;;;5051800;28;20057;-66
2022/12/18 06:29:59;;;;;;;27.48;12.57;;;-4.40;99.90;;;;;;5052979;28;20053;-65
2022/12/18 06:32:25;;;;;;;27.92;12.55;;;-4.00;99.90;;;;;;5053696;28;20072;-65
2022/12/18 06:34:51;;;;;;;24.58;12.45;;;-4.30;99.90;;;;;;5052837;28;20041;-66
2022/12/18 06:37:17;;;;;;;24.00;12.10;;;-4.20;99.90;;;;;;5052880;28;20072;-66
2022/12/18 06:39:43;;;;;;;22.58;11.40;;;-4.60;99.90;;;;;;5052831;28;20134;-66
2022/12/18 06:42:08;;;;;;;25.58;11.77;;;-3.90;99.90;;;;;;5053079;28;20495;-65
2022/12/18 06:44:34;;;;;;;24.67;11.30;;;-4.30;99.90;;;;;;5051170;28;20037;-66
2022/12/18 06:47:00;;;;;;;27.92;12.95;;;-4.30;99.90;;;;;;5052394;28;20060;-66
2022/12/18 06:49:26;;;;;;;20.23;10.93;;;-4.20;99.90;;;;;;5051605;28;20049;-66
2022/12/18 06:51:51;;;;;;;30.65;12.85;;;-4.40;99.90;;;;;;5052741;28;20045;-66
2022/12/18 06:54:17;;;;;;;25.88;11.88;;;-3.20;99.90;;;;;;5052888;28;20048;-66
2022/12/18 06:56:45;;;;;;;28.75;12.65;;;-4.50;99.90;;;;;;5055603;28;20044;-66
2022/12/18 06:59:13;;;;;;;27.00;12.32;;;-4.40;99.90;;;;;;5056272;28;20393;-65
2022/12/18 07:01:38;;;;;;;23.55;11.98;;;-4.60;99.90;;;;;;5056246;28;20175;-66
2022/12/18 07:04:04;;;;;;;25.13;11.07;;;-4.50;99.90;;;;;;5054654;28;20077;-66
2022/12/18 07:06:30;;;;;;;24.90;11.45;;;-4.60;99.90;;;;;;5056638;28;20103;-65
2022/12/18 07:08:56;;;;;;;24.20;12.43;;;-4.40;99.90;;;;;;5055766;28;20036;-65
2022/12/18 07:11:22;;;;;;;23.38;11.85;;;-4.60;99.90;;;;;;5056549;28;20059;-65
2022/12/18 07:13:48;;;;;;;30.48;13.18;;;-4.60;99.90;;;;;;5055618;28;20484;-65
2022/12/18 07:16:17;;;;;;;22.65;11.60;;;-4.60;99.90;;;;;;5054658;28;20045;-65
2022/12/18 07:18:43;;;;;;;22.83;11.55;;;-4.60;99.90;;;;;;5055960;28;20061;-65
2022/12/18 07:21:12;;;;;;;20.35;11.13;;;-4.30;99.90;;;;;;5055603;28;20488;-65
2022/12/18 07:23:39;;;;;;;21.98;11.20;;;-3.50;99.90;;;;;;5056368;28;20436;-66
2022/12/18 07:26:07;;;;;;;23.73;11.20;;;-4.50;99.90;;;;;;5054650;28;20044;-65
2022/12/18 07:28:33;;;;;;;24.08;11.63;;;-4.40;99.90;;;;;;5055726;28;20123;-65
2022/12/18 07:31:04;;;;;;;24.08;11.43;;;-4.60;99.90;;;;;;5055236;28;20136;-66
2022/12/18 07:33:29;;;;;;;23.73;11.50;;;-4.50;99.90;;;;;;5056185;28;20045;-66
2022/12/18 07:35:55;;;;;;;32.85;11.93;;;-4.60;99.90;;;;;;5055575;28;20060;-66
2022/12/18 07:38:22;;;;;;;23.70;11.55;;;-4.60;99.90;;;;;;5054868;28;20048;-67
2022/12/18 07:40:47;;;;;;;25.02;11.43;;;-4.60;99.90;;;;;;5054322;28;20085;-68
2022/12/18 07:43:13;;;;;;;21.20;10.77;;;-3.40;99.90;;;;;;5055443;28;20134;-66
2022/12/18 07:45:39;;;;;;;17.35;10.65;;;-4.60;99.90;;;;;;5054697;28;20056;-66
2022/12/18 07:48:04;;;;;;;21.02;10.82;;;-4.60;99.90;;;;;;5055434;28;20413;-65
2022/12/18 07:50:30;;;;;;;20.30;10.23;;;-3.60;99.90;;;;;;5055233;28;20135;-65
2022/12/18 07:52:56;;;;;;;26.48;11.18;;;-4.50;99.90;;;;;;5055194;28;20051;-66
2022/12/18 07:55:22;;;;;;;21.55;10.18;;;-4.30;99.90;;;;;;5053998;28;20049;-66
2022/12/18 07:57:47;;;;;;;21.02;10.57;;;-4.40;99.90;;;;;;5037404;28;20526;-66
2022/12/18 08:00:14;;;;;;;22.70;9.88;;;-4.40;99.90;;;;;;5054148;28;20053;-65
2022/12/18 08:02:39;;;;;;;20.42;10.38;;;-4.10;99.90;;;;;;5055055;28;20076;-65
2022/12/18 08:05:05;;;;;;;18.98;9.45;;;-4.50;99.90;;;;;;5055038;28;20045;-65
2022/12/18 08:07:31;;;;;;;21.65;10.15;;;-4.40;99.90;;;;;;5054590;28;20048;-65
2022/12/18 08:09:56;;;;;;;22.13;10.70;;;-4.20;99.90;;;;;;5053783;28;20052;-66
2022/12/18 08:12:22;;;;;;;21.15;11.73;;;-4.40;99.90;;;;;;5053792;28;20492;-65
2022/12/18 08:14:48;;;;;;;22.65;10.57;;;-4.20;99.90;;;;;;5053649;28;20041;-66
2022/12/18 08:17:13;;;;;;;18.25;8.60;;;-4.50;99.90;;;;;;5054556;28;20049;-65
2022/12/18 08:19:39;;;;;;;20.20;10.05;;;-4.40;99.90;;;;;;5055564;28;20041;-65
2022/12/18 08:22:05;;;;;;;22.63;10.25;;;-4.30;99.90;;;;;;5055290;28;20057;-65
2022/12/18 08:24:30;;;;;;;20.80;9.55;;;-4.40;99.90;;;;;;5053983;28;20437;-65
2022/12/18 08:26:57;;;;;;;22.60;11.38;;;-4.50;99.90;;;;;;5037818;28;20539;-65
2022/12/18 08:29:22;;;;;;;21.50;9.73;;;-4.30;99.90;;;;;;5054609;28;20099;-65
2022/12/18 08:31:49;;;;;;;17.60;9.30;;;-4.20;99.90;;;;;;5037328;28;20053;-65
2022/12/18 08:34:14;;;;;;;17.17;9.00;;;-3.90;99.90;;;;;;5054102;28;20492;-65
2022/12/18 08:36:40;;;;;;;18.55;9.43;;;-4.20;99.90;;;;;;5054448;28;20045;-65
2022/12/18 08:39:06;;;;;;;17.42;9.00;;;-3.90;99.90;;;;;;5053395;28;20488;-65
2022/12/18 08:41:32;;;;;;;19.13;8.98;;;-4.20;99.90;;;;;;5053159;28;20049;-66
2022/12/18 08:46:43;;;;;;;17.65;8.85;;;-3.90;99.90;;;;;;5054696;28;20045;-65
2022/12/18 08:49:10;;;;;;;17.75;8.68;;;-4.00;99.90;;;;;;5053278;28;20404;-66
2022/12/18 08:51:36;;;;;;;15.63;8.27;;;-2.40;99.90;;;;;;5054188;28;20075;-66
2022/12/18 08:54:02;;;;;;;19.55;10.23;;;-3.30;99.90;;;;;;5054177;28;20060;-66
2022/12/18 08:56:29;;;;;;;16.08;8.77;;;-3.90;99.90;;;;;;5054248;28;20395;-66
2022/12/18 08:58:55;;;;;;;17.58;9.35;;;-3.60;99.90;;;;;;5054346;28;20552;-68
2022/12/18 09:01:22;;;;;;;16.52;8.60;;;-3.40;99.90;;;;;;5054070;28;20084;-68
2022/12/18 09:03:49;;;;;;;18.55;9.32;;;-3.90;99.90;;;;;;5054253;28;20128;-67
2022/12/18 09:06:17;;;;;;;11.30;7.20;;;-3.90;99.90;;;;;;5054008;28;20400;-67
2022/12/18 09:08:43;;;;;;;16.45;8.82;;;-3.60;99.90;;;;;;5054013;28;20491;-67
2022/12/18 09:11:18;;;;;;;16.65;8.57;;;-3.60;99.90;;;;;;5054698;28;20112;-68
2022/12/18 09:13:44;;;;;;;12.43;7.95;;;-3.80;99.90;;;;;;5054359;28;20473;-66
2022/12/18 09:16:09;;;;;;;16.10;8.48;;;-3.50;99.90;;;;;;5054600;28;20052;-65
2022/12/18 09:18:35;;;;;;;14.40;7.82;;;-3.60;99.90;;;;;;5052922;28;20045;-66
2022/12/18 09:21:18;;;;;;;13.40;7.45;;;-3.70;99.90;;;;;;5052619;28;20045;-66
2022/12/18 09:23:48;;;;;;;14.85;7.75;;;-3.60;99.90;;;;;;5053487;28;20496;-66
2022/12/18 09:26:14;;;;;;;14.65;8.02;;;-3.70;99.90;;;;;;5052903;28;20124;-66
2022/12/18 09:28:40;;;;;;;13.27;7.43;;;-3.60;99.90;;;;;;5052700;28;20591;-65
2022/12/18 09:31:08;;;;;;;13.98;8.00;;;-2.90;99.90;;;;;;5035868;28;20155;-66
2022/12/18 09:33:37;;;;;;;11.93;7.70;;;-3.40;99.90;;;;;;5052478;28;20070;-66
2022/12/18 09:36:05;;;;;;;16.30;7.40;;;-3.40;99.90;;;;;;5052377;28;20045;-66
2022/12/18 09:38:31;;;;;;;12.95;7.78;;;-3.40;99.90;;;;;;5054368;28;20473;-66
2022/12/18 09:41:25;;;;;;;15.20;7.95;;;-3.30;99.90;;;;;;5035960;28;20116;-66
2022/12/18 09:43:55;;;;;;;14.52;7.05;;;-3.30;99.90;;;;;;5053560;28;20051;-66
2022/12/18 09:46:28;;;;;;;12.40;7.22;;;-3.10;99.90;;;;;;5053349;28;20496;-65
2022/12/18 09:49:00;;;;;;;11.63;6.50;;;-3.10;99.90;;;;;;5052262;28;20056;-66
2022/12/18 09:51:32;;;;;;;13.38;6.50;;;-3.10;99.90;;;;;;5053408;28;20497;-66
2022/12/18 09:54:04;;;;;;;10.23;4.93;;;-2.90;99.90;;;;;;5053373;28;20049;-67
2022/12/18 09:56:36;;;;;;;11.38;6.07;;;-2.60;99.90;;;;;;5053262;28;20037;-66
2022/12/18 09:59:03;;;;;;;9.40;6.03;;;-3.10;99.90;;;;;;5052290;28;20044;-66
2022/12/18 10:01:31;;;;;;;11.60;6.50;;;-2.90;99.90;;;;;;5053273;28;20128;-65
2022/12/18 10:03:57;;;;;;;11.23;4.70;;;-2.90;99.90;;;;;;5053195;28;20044;-66
2022/12/18 10:06:35;;;;;;;10.02;4.93;;;-2.40;99.90;;;;;;5053192;28;20049;-65
2022/12/18 10:09:19;;;;;;;10.07;5.05;;;-2.10;99.90;;;;;;5053785;28;20051;-66
2022/12/18 10:11:53;;;;;;;9.73;4.72;;;-2.70;99.90;;;;;;5053229;28;20053;-66
2022/12/18 10:14:38;;;;;;;7.22;4.35;;;-2.70;99.90;;;;;;5053113;28;20052;-66
2022/12/18 10:17:23;;;;;;;8.10;4.30;;;-2.20;99.90;;;;;;5051558;28;20045;-65
2022/12/18 10:20:04;;;;;;;7.78;4.22;;;-2.60;99.90;;;;;;5053077;28;20052;-65
2022/12/18 10:22:48;;;;;;;8.18;4.03;;;-2.60;99.90;;;;;;5053939;28;20120;-65
2022/12/18 10:25:21;;;;;;;6.97;4.50;;;-2.50;99.90;;;;;;5053009;28;20497;-65
2022/12/18 10:27:47;;;;;;;8.88;4.00;;;-2.30;99.90;;;;;;5052763;28;20049;-65
2022/12/18 10:30:16;;;;;;;8.25;4.25;;;-2.40;99.90;;;;;;5054958;28;20124;-65
2022/12/18 10:32:42;;;;;;;8.70;3.85;;;-2.30;99.90;;;;;;5056752;28;20049;-65
2022/12/18 10:35:36;;;;;;;8.43;4.50;;;-2.30;99.90;;;;;;5055380;28;20442;-65
2022/12/18 10:38:03;;;;;;;7.78;4.30;;;-2.40;99.90;;;;;;5054678;28;20099;-65
2022/12/18 10:40:29;;;;;;;6.75;3.58;;;-2.30;99.90;;;;;;5056628;28;20048;-66
2022/12/18 10:43:15;;;;;;;7.85;4.22;;;-2.30;99.90;;;;;;5039419;28;20052;-67
2022/12/18 10:45:41;;;;;;;7.97;4.22;;;-2.10;99.90;;;;;;5055418;28;20049;-66
2022/12/18 10:48:23;;;;;;;8.38;3.97;;;-2.10;99.90;;;;;;5056063;28;20061;-66
2022/12/18 10:50:51;;;;;;;9.00;4.60;;;-1.90;99.90;;;;;;5056491;28;20063;-65
2022/12/18 10:53:27;;;;;;;5.85;3.95;;;-2.10;99.90;;;;;;5055369;28;20135;-65
2022/12/18 10:55:55;;;;;;;6.90;3.35;;;-2.10;99.90;;;;;;5057161;28;20071;-65
2022/12/18 10:58:34;;;;;;;6.07;3.83;;;-2.00;99.90;;;;;;5055337;28;20045;-66
2022/12/18 11:01:11;;;;;;;7.72;3.13;;;-1.80;99.90;;;;;;5056919;28;20053;-66
2022/12/18 11:03:54;;;;;;;6.57;3.28;;;-1.70;99.90;;;;;;5055218;28;20052;-65
2022/12/18 11:06:24;;;;;;;7.80;3.70;;;-1.90;99.90;;;;;;5055991;28;20052;-66
2022/12/18 11:09:02;;;;;;;7.72;3.95;;;-0.90;99.90;;;;;;5056684;28;20044;-65
2022/12/18 11:11:28;;;;;;;6.60;3.38;;;-1.90;99.90;;;;;;5056612;28;20471;-66
2022/12/18 11:14:06;;;;;;;6.95;3.83;;;-1.70;99.90;;;;;;5055944;28;20060;-65
2022/12/18 11:16:44;;;;;;;5.93;3.72;;;-1.70;99.90;;;;;;5054922;28;20433;-66
2022/12/18 11:19:28;;;;;;;5.20;3.50;;;-1.80;99.90;;;;;;5055837;28;20127;-66
2022/12/18 11:21:55;;;;;;;8.23;3.38;;;-1.70;99.90;;;;;;5056508;28;20045;-66
2022/12/18 11:24:32;;;;;;;7.40;4.03;;;-1.80;99.90;;;;;;5055788;28;20045;-66
2022/12/18 11:27:01;;;;;;;6.55;3.50;;;-1.60;99.90;;;;;;5055711;28;20527;-66
2022/12/18 11:29:38;;;;;;;5.40;3.10;;;-1.60;99.90;;;;;;5056208;28;20049;-67
2022/12/18 11:32:21;;;;;;;9.60;3.53;;;-1.80;99.90;;;;;;5055432;28;20052;-66
2022/12/18 11:34:51;;;;;;;8.27;5.20;;;-1.60;99.90;;;;;;5055165;28;20377;-66
2022/12/18 11:37:20;;;;;;;8.73;4.18;;;-1.50;99.90;;;;;;5055483;28;20059;-66
2022/12/18 11:40:11;;;;;;;7.32;3.70;;;-1.50;99.90;;;;;;5055536;28;20045;-66
2022/12/18 11:43:02;;;;;;;6.38;3.00;;;-1.50;99.90;;;;;;5055525;28;20084;-66
2022/12/18 11:45:31;;;;;;;5.88;3.35;;;-1.60;99.90;;;;;;5054367;28;20056;-66
2022/12/18 11:48:19;;;;;;;8.30;3.83;;;-1.60;99.90;;;;;;5055053;28;20400;-66
2022/12/18 11:50:51;;;;;;;5.93;3.35;;;-1.40;99.90;;;;;;5055721;28;20397;-66
2022/12/18 11:53:18;;;;;;;5.25;2.97;;;-1.50;99.90;;;;;;5055025;28;20372;-66
2022/12/18 11:56:21;;;;;;;5.70;3.40;;;-1.60;99.90;;;;;;5054272;28;20051;-66
2022/12/18 11:59:06;;;;;;;5.65;3.33;;;-1.50;99.90;;;;;;5055164;28;20057;-66
2022/12/18 12:01:32;;;;;;;7.15;3.47;;;-1.50;99.90;;;;;;5054713;28;20063;-66
2022/12/18 12:04:15;;;;;;;5.18;3.00;;;-1.20;99.90;;;;;;5055643;28;20543;-66
2022/12/18 12:06:50;;;;;;;5.68;2.58;;;-0.60;99.90;;;;;;5055066;28;20051;-66
2022/12/18 12:09:21;;;;;;;6.18;3.95;;;-1.20;99.90;;;;;;5054624;28;20465;-67
2022/12/18 12:11:58;;;;;;;7.05;3.88;;;-1.00;99.90;;;;;;5055590;28;20045;-67
2022/12/18 12:14:37;;;;;;;8.05;4.13;;;-0.10;99.90;;;;;;5054833;28;20043;-68
2022/12/18 12:17:24;;;;;;;5.68;2.80;;;-1.10;99.90;;;;;;5054483;28;20128;-67
2022/12/18 12:20:06;;;;;;;7.18;3.22;;;-1.10;99.90;;;;;;5054807;28;20080;-66
2022/12/18 12:23:05;;;;;;;7.53;3.67;;;-1.30;99.90;;;;;;5054588;28;20049;-68
2022/12/18 12:25:44;;;;;;;5.85;2.97;;;-1.30;99.90;;;;;;5053999;28;20055;-66
2022/12/18 12:28:30;;;;;;;6.78;3.45;;;-1.00;99.90;;;;;;5055102;28;20087;-66
2022/12/18 12:31:06;;;;;;;5.97;2.90;;;-1.20;99.90;;;;;;5055196;28;20388;-66
2022/12/18 12:34:11;;;;;;;8.32;3.55;;;-0.80;99.90;;;;;;5053284;28;20041;-66
2022/12/18 12:36:56;;;;;;;;;;;-1.00;99.90;;;;;;5033727;28;20510;-66
2022/12/18 12:39:31;;;;;;;7.90;3.65;;;-1.30;99.90;;;;;;5042859;28;20015;-66
2022/12/18 12:44:53;;;;;;;4.57;2.65;;;-0.90;99.90;;;;;;5055110;28;20099;-67
2022/12/18 12:47:32;;;;;;;6.75;3.75;;;-1.10;99.90;;;;;;5053833;28;20064;-67
2022/12/18 12:50:01;;;;;;;7.60;4.30;;;-0.80;99.90;;;;;;5053076;28;20057;-66
2022/12/18 12:52:30;;;;;;;7.25;3.65;;;-1.00;99.90;;;;;;5053794;28;20552;-67
2022/12/18 12:54:56;;;;;;;5.90;3.30;;;-0.10;99.90;;;;;;5052740;28;20048;-67
2022/12/18 12:57:33;;;;;;;6.20;3.13;;;-0.90;99.90;;;;;;5053089;28;20048;-67
2022/12/18 13:00:14;;;;;;;6.28;3.28;;;-0.90;99.90;;;;;;5055186;28;20056;-66
2022/12/18 13:02:59;;;;;;;6.05;3.15;;;-0.90;99.90;;;;;;5054065;28;20092;-67